sensor_id;sensor_type;location;lat;lon;timestamp;pressure;altitude;pressure_sealevel;temperature;humidity
51468;BME280;37545;45.302;-122.946;2023-03-19T00:01:10;100648.88;;;20.88;29.29
51468;BME280;37545;45.302;-122.946;2023-03-19T00:03:39;100644.59;;;20.82;28.81
51468;BME280;37545;45.302;-122.946;2023-03-19T00:06:08;100635.94;;;20.74;29.59
51468;BME280;37545;45.302;-122.946;2023-03-19T00:08:37;100636.91;;;20.68;30.12
51468;BME280;37545;45.302;-122.946;2023-03-19T00:11:08;100638.84;;;20.51;29.89
51468;BME280;37545;45.302;-122.946;2023-03-19T00:13:38;100636.41;;;20.37;30.06
51468;BME280;37545;45.302;-122.946;2023-03-19T00:16:09;100638.25;;;20.29;30.34
51468;BME280;37545;45.302;-122.946;2023-03-19T00:18:38;100640.94;;;20.24;30.12
51468;BME280;37545;45.302;-122.946;2023-03-19T00:21:08;100641.03;;;20.18;30.86
51468;BME280;37545;45.302;-122.946;2023-03-19T00:23:37;100631.41;;;20.16;30.57
51468;BME280;37545;45.302;-122.946;2023-03-19T00:26:08;100639.38;;;20.08;31.02
51468;BME280;37545;45.302;-122.946;2023-03-19T00:28:37;100628.06;;;20.01;31.50
51468;BME280;37545;45.302;-122.946;2023-03-19T00:31:09;100629.03;;;19.96;31.57
51468;BME280;37545;45.302;-122.946;2023-03-19T00:33:39;100630.84;;;19.87;31.94
51468;BME280;37545;45.302;-122.946;2023-03-19T00:36:09;100625.69;;;19.81;31.83
51468;BME280;37545;45.302;-122.946;2023-03-19T00:38:39;100626.59;;;19.74;31.74
51468;BME280;37545;45.302;-122.946;2023-03-19T00:41:07;100630.13;;;19.73;32.27
51468;BME280;37545;45.302;-122.946;2023-03-19T00:43:36;100622.31;;;19.70;32.28
51468;BME280;37545;45.302;-122.946;2023-03-19T00:46:05;100619.66;;;19.67;32.82
51468;BME280;37545;45.302;-122.946;2023-03-19T00:48:36;100623.19;;;19.64;33.61
51468;BME280;37545;45.302;-122.946;2023-03-19T00:51:06;100623.28;;;19.54;34.66
51468;BME280;37545;45.302;-122.946;2023-03-19T00:53:36;100612.03;;;19.42;33.60
51468;BME280;37545;45.302;-122.946;2023-03-19T00:56:06;100612.94;;;19.37;35.76
51468;BME280;37545;45.302;-122.946;2023-03-19T00:58:36;100607.75;;;19.31;35.31
51468;BME280;37545;45.302;-122.946;2023-03-19T01:01:10;100606.97;;;19.21;33.01
51468;BME280;37545;45.302;-122.946;2023-03-19T01:03:42;100609.63;;;19.15;33.53
51468;BME280;37545;45.302;-122.946;2023-03-19T01:06:11;100609.66;;;19.10;35.35
51468;BME280;37545;45.302;-122.946;2023-03-19T01:08:41;100604.50;;;19.04;35.20
51468;BME280;37545;45.302;-122.946;2023-03-19T01:11:12;100599.28;;;18.98;34.17
51468;BME280;37545;45.302;-122.946;2023-03-19T01:13:41;100591.41;;;18.96;33.43
51468;BME280;37545;45.302;-122.946;2023-03-19T01:16:10;100601.94;;;18.93;35.74
51468;BME280;37545;45.302;-122.946;2023-03-19T01:18:39;100593.25;;;18.88;34.64
51468;BME280;37545;45.302;-122.946;2023-03-19T01:21:09;100595.91;;;18.83;34.23
51468;BME280;37545;45.302;-122.946;2023-03-19T01:23:38;100595.91;;;18.82;33.89
51468;BME280;37545;45.302;-122.946;2023-03-19T01:26:07;100593.31;;;18.79;34.02
51468;BME280;37545;45.302;-122.946;2023-03-19T01:28:35;100585.44;;;18.74;33.60
51468;BME280;37545;45.302;-122.946;2023-03-19T01:31:06;100582.84;;;18.67;33.73
51468;BME280;37545;45.302;-122.946;2023-03-19T01:33:35;100579.44;;;18.60;34.31
51468;BME280;37545;45.302;-122.946;2023-03-19T01:36:05;100585.53;;;18.57;34.05
51468;BME280;37545;45.302;-122.946;2023-03-19T01:38:35;100576.84;;;18.51;34.52
51468;BME280;37545;45.302;-122.946;2023-03-19T01:41:04;100563.81;;;18.40;34.65
51468;BME280;37545;45.302;-122.946;2023-03-19T01:43:33;100582.16;;;18.38;35.74
51468;BME280;37545;45.302;-122.946;2023-03-19T01:46:05;100583.09;;;18.25;36.39
51468;BME280;37545;45.302;-122.946;2023-03-19T01:48:38;100578.78;;;18.16;35.93
51468;BME280;37545;45.302;-122.946;2023-03-19T01:51:09;100578.78;;;18.12;36.10
51468;BME280;37545;45.302;-122.946;2023-03-19T01:53:42;100575.31;;;18.10;36.67
51468;BME280;37545;45.302;-122.946;2023-03-19T01:56:15;100575.34;;;18.05;36.76
51468;BME280;37545;45.302;-122.946;2023-03-19T01:58:48;100569.25;;;17.97;37.94
51468;BME280;37545;45.302;-122.946;2023-03-19T02:01:20;100571.88;;;17.91;38.33
51468;BME280;37545;45.302;-122.946;2023-03-19T02:03:49;100578.03;;;17.85;38.40
51468;BME280;37545;45.302;-122.946;2023-03-19T02:06:19;100576.25;;;17.79;38.90
51468;BME280;37545;45.302;-122.946;2023-03-19T02:08:52;100575.41;;;17.73;38.63
51468;BME280;37545;45.302;-122.946;2023-03-19T02:11:28;100583.28;;;17.65;38.83
51468;BME280;37545;45.302;-122.946;2023-03-19T02:14:00;100563.25;;;17.50;40.94
51468;BME280;37545;45.302;-122.946;2023-03-19T02:16:28;100579.84;;;17.48;40.42
51468;BME280;37545;45.302;-122.946;2023-03-19T02:19:04;100575.47;;;17.39;40.57
51468;BME280;37545;45.302;-122.946;2023-03-19T02:21:42;100576.38;;;17.30;40.42
51468;BME280;37545;45.302;-122.946;2023-03-19T02:24:18;100581.59;;;17.21;41.27
51468;BME280;37545;45.302;-122.946;2023-03-19T02:26:49;100578.09;;;17.13;41.59
51468;BME280;37545;45.302;-122.946;2023-03-19T02:29:19;100578.09;;;17.04;41.92
51468;BME280;37545;45.302;-122.946;2023-03-19T02:31:50;100588.56;;;16.94;42.02
51468;BME280;37545;45.302;-122.946;2023-03-19T02:34:36;100583.31;;;16.85;43.13
51468;BME280;37545;45.302;-122.946;2023-03-19T02:37:13;100578.91;;;16.76;42.52
51468;BME280;37545;45.302;-122.946;2023-03-19T02:39:50;100578.06;;;16.68;43.53
51468;BME280;37545;45.302;-122.946;2023-03-19T02:42:22;100574.56;;;16.59;43.33
51468;BME280;37545;45.302;-122.946;2023-03-19T02:44:51;100570.19;;;16.53;43.45
51468;BME280;37545;45.302;-122.946;2023-03-19T02:47:20;100578.84;;;16.44;43.73
51468;BME280;37545;45.302;-122.946;2023-03-19T02:49:49;100573.63;;;16.35;44.20
51468;BME280;37545;45.302;-122.946;2023-03-19T02:52:18;100576.19;;;16.26;44.48
51468;BME280;37545;45.302;-122.946;2023-03-19T02:54:46;100586.59;;;16.17;44.19
51468;BME280;37545;45.302;-122.946;2023-03-19T02:57:15;100588.34;;;16.08;45.14
51468;BME280;37545;45.302;-122.946;2023-03-19T02:59:46;100580.47;;;15.99;45.32
51468;BME280;37545;45.302;-122.946;2023-03-19T03:02:15;100589.97;;;15.91;45.21
51468;BME280;37545;45.302;-122.946;2023-03-19T03:04:44;100589.03;;;15.80;45.20
51468;BME280;37545;45.302;-122.946;2023-03-19T03:07:13;100585.53;;;15.73;46.37
51468;BME280;37545;45.302;-122.946;2023-03-19T03:09:41;100580.22;;;15.64;46.01
51468;BME280;37545;45.302;-122.946;2023-03-19T03:12:10;100584.53;;;15.56;46.02
51468;BME280;37545;45.302;-122.946;2023-03-19T03:14:39;100584.47;;;15.48;46.53
51468;BME280;37545;45.302;-122.946;2023-03-19T03:17:10;100587.06;;;15.42;46.75
51468;BME280;37545;45.302;-122.946;2023-03-19T03:19:39;100584.41;;;15.36;47.35
51468;BME280;37545;45.302;-122.946;2023-03-19T03:22:08;100586.09;;;15.29;47.20
51468;BME280;37545;45.302;-122.946;2023-03-19T03:24:37;100590.41;;;15.24;47.80
51468;BME280;37545;45.302;-122.946;2023-03-19T03:27:06;100584.28;;;15.20;48.29
51468;BME280;37545;45.302;-122.946;2023-03-19T03:29:35;100595.53;;;15.16;47.98
51468;BME280;37545;45.302;-122.946;2023-03-19T03:32:03;100585.94;;;15.14;47.96
51468;BME280;37545;45.302;-122.946;2023-03-19T03:34:34;100585.06;;;15.08;47.76
51468;BME280;37545;45.302;-122.946;2023-03-19T03:37:03;100588.50;;;15.06;47.73
51468;BME280;37545;45.302;-122.946;2023-03-19T03:39:32;100596.31;;;15.04;48.03
51468;BME280;37545;45.302;-122.946;2023-03-19T03:42:01;100590.22;;;15.01;47.58
51468;BME280;37545;45.302;-122.946;2023-03-19T03:44:30;100587.56;;;14.98;48.66
51468;BME280;37545;45.302;-122.946;2023-03-19T03:47:01;100592.75;;;14.95;48.22
51468;BME280;37545;45.302;-122.946;2023-03-19T03:49:30;100597.94;;;14.92;48.85
51468;BME280;37545;45.302;-122.946;2023-03-19T03:52:00;100591.84;;;14.90;48.34
51468;BME280;37545;45.302;-122.946;2023-03-19T03:54:29;100585.75;;;14.87;50.67
51468;BME280;37545;45.302;-122.946;2023-03-19T03:56:58;100585.69;;;14.83;50.99
51468;BME280;37545;45.302;-122.946;2023-03-19T03:59:26;100585.66;;;14.78;49.11
51468;BME280;37545;45.302;-122.946;2023-03-19T04:01:55;100577.81;;;14.75;48.72
51468;BME280;37545;45.302;-122.946;2023-03-19T04:04:24;100579.50;;;14.72;48.57
51468;BME280;37545;45.302;-122.946;2023-03-19T04:06:53;100578.59;;;14.68;49.71
51468;BME280;37545;45.302;-122.946;2023-03-19T04:09:23;100573.38;;;14.65;49.41
51468;BME280;37545;45.302;-122.946;2023-03-19T04:11:52;100575.09;;;14.61;50.09
51468;BME280;37545;45.302;-122.946;2023-03-19T04:14:20;100570.69;;;14.59;50.87
51468;BME280;37545;45.302;-122.946;2023-03-19T04:16:49;100561.91;;;14.52;50.42
51468;BME280;37545;45.302;-122.946;2023-03-19T04:19:18;100562.75;;;14.48;49.22
51468;BME280;37545;45.302;-122.946;2023-03-19T04:21:47;100569.63;;;14.41;49.08
51468;BME280;37545;45.302;-122.946;2023-03-19T04:24:15;100573.03;;;14.34;51.64
51468;BME280;37545;45.302;-122.946;2023-03-19T04:26:46;100570.28;;;14.23;51.53
51468;BME280;37545;45.302;-122.946;2023-03-19T04:29:15;100567.63;;;14.19;50.93
51468;BME280;37545;45.302;-122.946;2023-03-19T04:31:44;100569.31;;;14.14;50.97
51468;BME280;37545;45.302;-122.946;2023-03-19T04:34:13;100568.38;;;14.09;50.59
51468;BME280;37545;45.302;-122.946;2023-03-19T04:36:42;100566.59;;;14.06;50.39
51468;BME280;37545;45.302;-122.946;2023-03-19T04:39:11;100569.16;;;14.01;50.24
51468;BME280;37545;45.302;-122.946;2023-03-19T04:41:39;100572.59;;;13.97;48.99
51468;BME280;37545;45.302;-122.946;2023-03-19T04:44:10;100563.88;;;13.95;47.95
51468;BME280;37545;45.302;-122.946;2023-03-19T04:46:38;100569.94;;;13.93;48.86
51468;BME280;37545;45.302;-122.946;2023-03-19T04:49:07;100571.63;;;13.91;49.86
51468;BME280;37545;45.302;-122.946;2023-03-19T04:51:36;100566.38;;;13.88;49.36
51468;BME280;37545;45.302;-122.946;2023-03-19T04:54:04;100570.69;;;13.84;49.37
51468;BME280;37545;45.302;-122.946;2023-03-19T04:56:33;100568.03;;;13.79;49.31
51468;BME280;37545;45.302;-122.946;2023-03-19T04:59:02;100565.34;;;13.75;49.95
51468;BME280;37545;45.302;-122.946;2023-03-19T05:01:32;100557.50;;;13.70;49.50
51468;BME280;37545;45.302;-122.946;2023-03-19T05:04:02;100558.34;;;13.68;49.49
51468;BME280;37545;45.302;-122.946;2023-03-19T05:06:30;100549.56;;;13.62;49.88
51468;BME280;37545;45.302;-122.946;2023-03-19T05:08:59;100545.22;;;13.60;49.82
51468;BME280;37545;45.302;-122.946;2023-03-19T05:11:28;100551.25;;;13.57;50.51
51468;BME280;37545;45.302;-122.946;2023-03-19T05:13:57;100547.75;;;13.55;50.50
51468;BME280;37545;45.302;-122.946;2023-03-19T05:16:25;100543.38;;;13.53;51.49
51468;BME280;37545;45.302;-122.946;2023-03-19T05:18:56;100545.06;;;13.51;50.99
51468;BME280;37545;45.302;-122.946;2023-03-19T05:21:24;100541.59;;;13.47;50.95
51468;BME280;37545;45.302;-122.946;2023-03-19T05:23:53;100537.22;;;13.46;51.14
51468;BME280;37545;45.302;-122.946;2023-03-19T05:26:22;100544.13;;;13.44;51.58
51468;BME280;37545;45.302;-122.946;2023-03-19T05:28:51;100541.50;;;13.43;51.86
51468;BME280;37545;45.302;-122.946;2023-03-19T05:31:19;100538.88;;;13.41;52.89
51468;BME280;37545;45.302;-122.946;2023-03-19T05:33:48;100531.06;;;13.38;52.52
51468;BME280;37545;45.302;-122.946;2023-03-19T05:36:18;100530.16;;;13.36;52.99
51468;BME280;37545;45.302;-122.946;2023-03-19T05:38:48;100524.88;;;13.33;52.75
51468;BME280;37545;45.302;-122.946;2023-03-19T05:41:17;100525.72;;;13.30;53.16
51468;BME280;37545;45.302;-122.946;2023-03-19T05:43:45;100514.28;;;13.20;52.96
51468;BME280;37545;45.302;-122.946;2023-03-19T05:46:14;100524.69;;;13.20;53.40
51468;BME280;37545;45.302;-122.946;2023-03-19T05:48:42;100522.00;;;13.14;54.34
51468;BME280;37545;45.302;-122.946;2023-03-19T05:51:11;100511.53;;;13.10;53.81
51468;BME280;37545;45.302;-122.946;2023-03-19T05:53:42;100509.75;;;13.06;54.75
51468;BME280;37545;45.302;-122.946;2023-03-19T05:56:11;100511.41;;;13.02;54.57
51468;BME280;37545;45.302;-122.946;2023-03-19T05:58:40;100507.88;;;12.98;54.99
51468;BME280;37545;45.302;-122.946;2023-03-19T06:01:08;100500.03;;;12.94;55.09
51468;BME280;37545;45.302;-122.946;2023-03-19T06:03:37;100492.19;;;12.91;55.07
51468;BME280;37545;45.302;-122.946;2023-03-19T06:06:06;100493.06;;;12.90;54.67
51468;BME280;37545;45.302;-122.946;2023-03-19T06:08:34;100498.25;;;12.90;54.30
51468;BME280;37545;45.302;-122.946;2023-03-19T06:11:05;100486.09;;;12.89;53.83
51468;BME280;37545;45.302;-122.946;2023-03-19T06:13:34;100479.19;;;12.89;53.35
51468;BME280;37545;45.302;-122.946;2023-03-19T06:16:02;100483.56;;;12.92;52.87
51468;BME280;37545;45.302;-122.946;2023-03-19T06:18:32;100475.78;;;12.92;52.41
51468;BME280;37545;45.302;-122.946;2023-03-19T06:21:00;100476.63;;;12.91;52.96
51468;BME280;37545;45.302;-122.946;2023-03-19T06:23:29;100478.34;;;12.90;53.21
51468;BME280;37545;45.302;-122.946;2023-03-19T06:25:58;100468.78;;;12.88;53.62
51468;BME280;37545;45.302;-122.946;2023-03-19T06:28:28;100464.50;;;12.90;52.42
51468;BME280;37545;45.302;-122.946;2023-03-19T06:30:59;100465.41;;;12.92;51.36
51468;BME280;37545;45.302;-122.946;2023-03-19T06:33:28;100464.53;;;12.93;49.83
51468;BME280;37545;45.302;-122.946;2023-03-19T06:35:57;100458.50;;;12.95;49.20
51468;BME280;37545;45.302;-122.946;2023-03-19T06:38:26;100453.34;;;12.97;49.07
51468;BME280;37545;45.302;-122.946;2023-03-19T06:40:55;100456.78;;;12.96;48.79
51468;BME280;37545;45.302;-122.946;2023-03-19T06:43:24;100460.28;;;12.98;48.90
51468;BME280;37545;45.302;-122.946;2023-03-19T06:45:54;100448.97;;;12.96;48.85
51468;BME280;37545;45.302;-122.946;2023-03-19T06:48:23;100449.88;;;12.98;48.27
51468;BME280;37545;45.302;-122.946;2023-03-19T06:50:51;100446.38;;;12.96;48.90
51468;BME280;37545;45.302;-122.946;2023-03-19T06:53:20;100435.94;;;12.91;48.17
51468;BME280;37545;45.302;-122.946;2023-03-19T06:55:49;100448.16;;;12.97;47.38
51468;BME280;37545;45.302;-122.946;2023-03-19T06:58:17;100452.47;;;12.98;47.28
51468;BME280;37545;45.302;-122.946;2023-03-19T07:00:46;100437.69;;;12.94;50.90
51468;BME280;37545;45.302;-122.946;2023-03-19T07:03:16;100456.84;;;12.99;48.20
51468;BME280;37545;45.302;-122.946;2023-03-19T07:05:45;100440.34;;;12.97;47.60
51468;BME280;37545;45.302;-122.946;2023-03-19T07:08:15;100442.97;;;12.98;48.72
51468;BME280;37545;45.302;-122.946;2023-03-19T07:10:43;100436.00;;;12.96;49.00
51468;BME280;37545;45.302;-122.946;2023-03-19T07:13:12;100437.72;;;12.95;50.16
51468;BME280;37545;45.302;-122.946;2023-03-19T07:15:41;100440.28;;;12.94;48.61
51468;BME280;37545;45.302;-122.946;2023-03-19T07:18:09;100444.63;;;12.92;48.09
51468;BME280;37545;45.302;-122.946;2023-03-19T07:20:40;100444.56;;;12.89;47.73
51468;BME280;37545;45.302;-122.946;2023-03-19T07:23:09;100454.94;;;12.89;48.36
51468;BME280;37545;45.302;-122.946;2023-03-19T07:25:37;100447.13;;;12.86;49.07
51468;BME280;37545;45.302;-122.946;2023-03-19T07:28:06;100444.44;;;12.83;48.49
51468;BME280;37545;45.302;-122.946;2023-03-19T07:30:34;100443.63;;;12.84;50.64
51468;BME280;37545;45.302;-122.946;2023-03-19T07:33:04;100432.28;;;12.78;51.18
51468;BME280;37545;45.302;-122.946;2023-03-19T07:35:33;100419.25;;;12.74;51.34
51468;BME280;37545;45.302;-122.946;2023-03-19T07:38:03;100419.19;;;12.69;51.41
51468;BME280;37545;45.302;-122.946;2023-03-19T07:40:33;100416.59;;;12.69;50.73
51468;BME280;37545;45.302;-122.946;2023-03-19T07:43:01;100410.50;;;12.67;50.90
51468;BME280;37545;45.302;-122.946;2023-03-19T07:45:31;100404.44;;;12.68;48.48
51468;BME280;37545;45.302;-122.946;2023-03-19T07:47:59;100402.75;;;12.70;47.47
51468;BME280;37545;45.302;-122.946;2023-03-19T07:50:29;100394.13;;;12.71;47.25
51468;BME280;37545;45.302;-122.946;2023-03-19T07:52:58;100395.03;;;12.75;46.54
51468;BME280;37545;45.302;-122.946;2023-03-19T07:55:28;100386.28;;;12.70;46.73
51468;BME280;37545;45.302;-122.946;2023-03-19T07:57:56;100395.94;;;12.78;46.18
51468;BME280;37545;45.302;-122.946;2023-03-19T08:00:25;100384.72;;;12.81;45.86
51468;BME280;37545;45.302;-122.946;2023-03-19T08:02:54;100380.41;;;12.82;45.52
51468;BME280;37545;45.302;-122.946;2023-03-19T08:05:22;100383.06;;;12.86;44.93
51468;BME280;37545;45.302;-122.946;2023-03-19T08:07:51;100378.81;;;12.90;48.88
51468;BME280;37545;45.302;-122.946;2023-03-19T08:10:20;100380.50;;;12.88;45.35
51468;BME280;37545;45.302;-122.946;2023-03-19T08:12:50;100369.22;;;12.87;45.01
51468;BME280;37545;45.302;-122.946;2023-03-19T08:15:19;100365.75;;;12.87;44.24
51468;BME280;37545;45.302;-122.946;2023-03-19T08:17:48;100362.31;;;12.88;44.52
51468;BME280;37545;45.302;-122.946;2023-03-19T08:20:17;100363.22;;;12.90;44.28
51468;BME280;37545;45.302;-122.946;2023-03-19T08:22:49;100359.75;;;12.91;44.72
51468;BME280;37545;45.302;-122.946;2023-03-19T08:25:18;100358.06;;;12.93;44.10
51468;BME280;37545;45.302;-122.946;2023-03-19T08:27:47;100348.53;;;12.92;43.91
51468;BME280;37545;45.302;-122.946;2023-03-19T08:30:17;100342.47;;;12.93;43.69
51468;BME280;37545;45.302;-122.946;2023-03-19T08:32:46;100346.81;;;12.94;44.09
51468;BME280;37545;45.302;-122.946;2023-03-19T08:35:15;100347.69;;;12.93;44.84
51468;BME280;37545;45.302;-122.946;2023-03-19T08:37:44;100344.19;;;12.91;44.30
51468;BME280;37545;45.302;-122.946;2023-03-19T08:40:13;100345.03;;;12.91;43.85
51468;BME280;37545;45.302;-122.946;2023-03-19T08:42:42;100332.06;;;12.90;45.28
51468;BME280;37545;45.302;-122.946;2023-03-19T08:45:12;100333.78;;;12.91;44.55
51468;BME280;37545;45.302;-122.946;2023-03-19T08:47:43;100322.50;;;12.89;43.96
51468;BME280;37545;45.302;-122.946;2023-03-19T08:50:11;100320.78;;;12.88;43.32
51468;BME280;37545;45.302;-122.946;2023-03-19T08:52:41;100319.97;;;12.92;43.82
51468;BME280;37545;45.302;-122.946;2023-03-19T08:55:10;100300.78;;;12.81;44.76
51468;BME280;37545;45.302;-122.946;2023-03-19T08:57:38;100313.00;;;12.89;44.63
51468;BME280;37545;45.302;-122.946;2023-03-19T09:00:08;100309.50;;;12.86;44.15
51468;BME280;37545;45.302;-122.946;2023-03-19T09:02:37;100308.63;;;12.85;43.63
51468;BME280;37545;45.302;-122.946;2023-03-19T09:05:08;100305.16;;;12.83;43.70
51468;BME280;37545;45.302;-122.946;2023-03-19T09:07:36;100304.25;;;12.83;42.89
51468;BME280;37545;45.302;-122.946;2023-03-19T09:10:06;100289.56;;;12.83;43.07
51468;BME280;37545;45.302;-122.946;2023-03-19T09:12:35;100298.25;;;12.85;42.74
51468;BME280;37545;45.302;-122.946;2023-03-19T09:15:04;100290.38;;;12.79;42.07
51468;BME280;37545;45.302;-122.946;2023-03-19T09:17:33;100297.41;;;12.88;43.43
51468;BME280;37545;45.302;-122.946;2023-03-19T09:20:02;100293.91;;;12.86;42.35
51468;BME280;37545;45.302;-122.946;2023-03-19T09:22:34;100306.88;;;12.84;43.13
51468;BME280;37545;45.302;-122.946;2023-03-19T09:25:02;100300.81;;;12.84;42.43
51468;BME280;37545;45.302;-122.946;2023-03-19T09:27:31;100302.53;;;12.85;42.60
51468;BME280;37545;45.302;-122.946;2023-03-19T09:30:00;100298.25;;;12.85;42.03
51468;BME280;37545;45.302;-122.946;2023-03-19T09:32:28;100286.97;;;12.85;43.71
51468;BME280;37545;45.302;-122.946;2023-03-19T09:34:57;100288.63;;;12.79;43.50
51468;BME280;37545;45.302;-122.946;2023-03-19T09:37:26;100283.41;;;12.76;43.62
51468;BME280;37545;45.302;-122.946;2023-03-19T09:39:56;100292.00;;;12.72;43.82
51468;BME280;37545;45.302;-122.946;2023-03-19T09:42:38;100285.91;;;12.69;43.63
51468;BME280;37545;45.302;-122.946;2023-03-19T09:45:12;100291.06;;;12.66;42.87
51468;BME280;37545;45.302;-122.946;2023-03-19T09:47:43;100284.97;;;12.64;42.31
51468;BME280;37545;45.302;-122.946;2023-03-19T09:50:14;100291.03;;;12.64;43.52
51468;BME280;37545;45.302;-122.946;2023-03-19T09:52:45;100283.22;;;12.64;43.18
51468;BME280;37545;45.302;-122.946;2023-03-19T09:55:29;100287.56;;;12.64;42.72
51468;BME280;37545;45.302;-122.946;2023-03-19T09:58:00;100291.03;;;12.64;43.87
51468;BME280;37545;45.302;-122.946;2023-03-19T10:00:33;100286.66;;;12.60;42.69
51468;BME280;37545;45.302;-122.946;2023-03-19T10:03:08;100281.47;;;12.62;43.03
51468;BME280;37545;45.302;-122.946;2023-03-19T10:05:46;100290.13;;;12.61;45.44
51468;BME280;37545;45.302;-122.946;2023-03-19T10:08:30;100293.53;;;12.56;42.44
51468;BME280;37545;45.302;-122.946;2023-03-19T10:11:17;100298.69;;;12.55;44.25
51468;BME280;37545;45.302;-122.946;2023-03-19T10:13:59;100288.28;;;12.52;44.64
51468;BME280;37545;45.302;-122.946;2023-03-19T10:16:44;100294.28;;;12.49;47.90
51468;BME280;37545;45.302;-122.946;2023-03-19T10:19:17;100279.50;;;12.44;44.32
51468;BME280;37545;45.302;-122.946;2023-03-19T10:21:51;100273.44;;;12.42;46.24
51468;BME280;37545;45.302;-122.946;2023-03-19T10:24:25;100278.56;;;12.39;45.97
51468;BME280;37545;45.302;-122.946;2023-03-19T10:27:00;100274.25;;;12.38;45.90
51468;BME280;37545;45.302;-122.946;2023-03-19T10:29:33;100270.75;;;12.35;44.18
51468;BME280;37545;45.302;-122.946;2023-03-19T10:32:09;100264.69;;;12.35;46.53
51468;BME280;37545;45.302;-122.946;2023-03-19T10:34:42;100260.34;;;12.32;45.24
51468;BME280;37545;45.302;-122.946;2023-03-19T10:37:16;100266.38;;;12.34;45.60
51468;BME280;37545;45.302;-122.946;2023-03-19T10:39:54;100261.19;;;12.33;44.88
51468;BME280;37545;45.302;-122.946;2023-03-19T10:42:41;100262.06;;;12.33;43.39
51468;BME280;37545;45.302;-122.946;2023-03-19T10:45:20;100265.53;;;12.32;43.89
51468;BME280;37545;45.302;-122.946;2023-03-19T10:47:52;100265.53;;;12.32;44.35
51468;BME280;37545;45.302;-122.946;2023-03-19T10:50:27;100265.50;;;12.31;43.17
51468;BME280;37545;45.302;-122.946;2023-03-19T10:53:03;100260.28;;;12.29;44.81
51468;BME280;37545;45.302;-122.946;2023-03-19T10:55:33;100261.09;;;12.27;44.29
51468;BME280;37545;45.302;-122.946;2023-03-19T10:58:13;100252.41;;;12.25;47.20
51468;BME280;37545;45.302;-122.946;2023-03-19T11:00:46;100244.69;;;12.28;45.59
51468;BME280;37545;45.302;-122.946;2023-03-19T11:03:28;100243.81;;;12.27;46.20
51468;BME280;37545;45.302;-122.946;2023-03-19T11:06:08;100236.00;;;12.24;45.63
51468;BME280;37545;45.302;-122.946;2023-03-19T11:08:51;100227.31;;;12.22;44.61
51468;BME280;37545;45.302;-122.946;2023-03-19T11:11:26;100222.09;;;12.19;46.37
51468;BME280;37545;45.302;-122.946;2023-03-19T11:14:08;100217.75;;;12.18;46.79
51468;BME280;37545;45.302;-122.946;2023-03-19T11:16:55;100209.03;;;12.13;47.86
51468;BME280;37545;45.302;-122.946;2023-03-19T11:19:25;100206.41;;;12.10;48.07
51468;BME280;37545;45.302;-122.946;2023-03-19T11:22:08;100202.03;;;12.07;47.74
51468;BME280;37545;45.302;-122.946;2023-03-19T11:24:41;100202.00;;;12.06;47.43
51468;BME280;37545;45.302;-122.946;2023-03-19T11:27:12;100188.13;;;12.02;47.08
51468;BME280;37545;45.302;-122.946;2023-03-19T11:29:43;100187.28;;;12.03;47.39
51468;BME280;37545;45.302;-122.946;2023-03-19T11:35:04;100190.69;;;11.99;47.70
51468;BME280;37545;45.302;-122.946;2023-03-19T11:37:48;100183.72;;;11.97;47.75
51468;BME280;37545;45.302;-122.946;2023-03-19T11:40:24;100190.56;;;11.91;46.65
51468;BME280;37545;45.302;-122.946;2023-03-19T11:43:33;100192.16;;;11.85;44.64
51468;BME280;37545;45.302;-122.946;2023-03-19T11:46:15;100187.84;;;11.85;45.65
51468;BME280;37545;45.302;-122.946;2023-03-19T11:49:01;100185.22;;;11.82;46.76
51468;BME280;37545;45.302;-122.946;2023-03-19T11:51:45;100181.75;;;11.83;47.23
51468;BME280;37545;45.302;-122.946;2023-03-19T11:54:22;100178.28;;;11.81;48.31
51468;BME280;37545;45.302;-122.946;2023-03-19T11:56:58;100175.69;;;11.80;47.70
51468;BME280;37545;45.302;-122.946;2023-03-19T11:59:38;100181.63;;;11.74;47.30
51468;BME280;37545;45.302;-122.946;2023-03-19T12:02:33;100179.91;;;11.73;48.28
51468;BME280;37545;45.302;-122.946;2023-03-19T12:05:18;100176.41;;;11.71;47.62
51468;BME280;37545;45.302;-122.946;2023-03-19T12:07:57;100173.81;;;11.72;47.91
51468;BME280;37545;45.302;-122.946;2023-03-19T12:10:42;100178.09;;;11.69;48.53
51468;BME280;37545;45.302;-122.946;2023-03-19T12:13:27;100173.75;;;11.68;48.07
51468;BME280;37545;45.302;-122.946;2023-03-19T12:16:08;100160.75;;;11.65;47.63
51468;BME280;37545;45.302;-122.946;2023-03-19T12:21:55;100173.59;;;11.59;47.79
51468;BME280;37545;45.302;-122.946;2023-03-19T12:24:35;100172.66;;;11.53;47.89
51468;BME280;37545;45.302;-122.946;2023-03-19T12:27:18;100170.03;;;11.50;47.52
51468;BME280;37545;45.302;-122.946;2023-03-19T12:29:55;100174.34;;;11.51;48.22
51468;BME280;37545;45.302;-122.946;2023-03-19T12:32:38;100178.63;;;11.49;48.32
51468;BME280;37545;45.302;-122.946;2023-03-19T12:35:15;100173.38;;;11.45;47.70
51468;BME280;37545;45.302;-122.946;2023-03-19T12:37:51;100159.56;;;11.44;48.08
51468;BME280;37545;45.302;-122.946;2023-03-19T12:40:26;100168.13;;;11.40;48.31
51468;BME280;37545;45.302;-122.946;2023-03-19T12:42:58;100178.41;;;11.36;46.69
51468;BME280;37545;45.302;-122.946;2023-03-19T12:45:30;100167.19;;;11.35;47.51
51468;BME280;37545;45.302;-122.946;2023-03-19T12:48:04;100175.81;;;11.36;47.19